createdAt,value
2019-03-08T00:01:33.995Z,5.50
2019-03-08T00:04:03.621Z,6.13
2019-03-08T00:06:33.094Z,6.13
2019-03-08T00:09:02.565Z,6.00
2019-03-08T00:11:32.395Z,5.90
2019-03-08T00:14:01.822Z,6.23
2019-03-08T00:16:31.297Z,6.03
2019-03-08T00:19:00.849Z,6.03
2019-03-08T00:21:30.324Z,6.00
2019-03-08T00:23:59.756Z,5.53
2019-03-08T00:26:29.554Z,6.00
2019-03-08T00:28:59.313Z,5.13
2019-03-08T00:31:28.759Z,5.87
2019-03-08T00:33:58.222Z,6.40
2019-03-08T00:36:27.684Z,7.03
2019-03-08T00:38:57.129Z,6.40
2019-03-08T00:41:26.864Z,6.13
2019-03-08T00:43:56.705Z,8.57
2019-03-08T00:46:26.544Z,6.67
2019-03-08T00:48:56.006Z,6.00
2019-03-08T00:51:25.509Z,5.83
2019-03-08T00:53:55.038Z,5.67
2019-03-08T00:56:24.545Z,6.00
2019-03-08T00:58:54.020Z,5.70
2019-03-08T01:01:23.690Z,6.33
2019-03-08T01:03:53.512Z,6.30
2019-03-08T01:06:23.250Z,6.47
2019-03-08T01:08:52.712Z,7.20
2019-03-08T01:11:22.151Z,6.63
2019-03-08T01:13:51.622Z,6.63
2019-03-08T01:16:21.170Z,6.73
2019-03-08T01:18:50.632Z,6.67
2019-03-08T01:21:20.159Z,7.30
2019-03-08T01:23:49.628Z,7.67
2019-03-08T01:26:19.707Z,6.67
2019-03-08T01:28:49.540Z,6.73
2019-03-08T01:31:18.997Z,6.33
2019-03-08T01:33:48.438Z,9.10
2019-03-08T01:36:17.881Z,6.83
2019-03-08T01:38:47.329Z,11.43
2019-03-08T01:41:17.347Z,7.10
2019-03-08T01:43:46.813Z,6.70
2019-03-08T01:46:16.256Z,7.00
2019-03-08T01:48:46.069Z,6.73
2019-03-08T01:51:15.504Z,7.23
2019-03-08T01:53:44.977Z,7.23
2019-03-08T01:56:14.424Z,7.77
2019-03-08T01:58:43.893Z,7.10
2019-03-08T02:01:13.417Z,6.63
2019-03-08T02:03:42.969Z,7.63
2019-03-08T02:06:12.832Z,6.60
2019-03-08T02:08:43.992Z,11.00
2019-03-08T02:11:13.561Z,7.53
2019-03-08T02:13:43.272Z,10.47
2019-03-08T02:16:12.728Z,8.50
2019-03-08T02:18:42.496Z,9.37
2019-03-08T02:21:12.041Z,7.83
2019-03-08T02:23:41.553Z,7.60
2019-03-08T02:26:11.018Z,9.20
2019-03-08T02:28:40.801Z,8.77
2019-03-08T02:31:10.276Z,10.33
2019-03-08T02:33:39.699Z,8.87
2019-03-08T02:36:09.468Z,9.47
2019-03-08T02:38:39.253Z,7.90
2019-03-08T02:41:09.068Z,8.13
2019-03-08T02:43:38.772Z,8.93
2019-03-08T02:46:08.237Z,8.93
2019-03-08T02:48:38.016Z,7.83
2019-03-08T02:51:08.336Z,7.80
2019-03-08T02:53:38.151Z,7.80
2019-03-08T02:56:07.608Z,7.13
2019-03-08T02:58:37.065Z,8.17
2019-03-08T03:01:06.533Z,8.00
2019-03-08T03:03:36.582Z,8.50
2019-03-08T03:06:06.070Z,9.33
2019-03-08T03:08:35.510Z,9.17
2019-03-08T03:11:04.973Z,7.43
2019-03-08T03:13:35.423Z,8.23
2019-03-08T03:16:05.929Z,8.60
2019-03-08T03:18:35.768Z,8.40
2019-03-08T03:21:05.226Z,8.67
2019-03-08T03:23:34.710Z,8.27
2019-03-08T03:26:04.570Z,8.63
2019-03-08T03:28:34.112Z,10.77
2019-03-08T03:31:03.623Z,9.80
2019-03-08T03:33:33.191Z,9.27
2019-03-08T03:36:02.973Z,10.43
2019-03-08T03:38:32.759Z,10.67
2019-03-08T03:41:02.421Z,10.70
2019-03-08T03:43:32.184Z,12.57
2019-03-08T03:46:01.612Z,8.47
2019-03-08T03:48:31.180Z,7.50
2019-03-08T03:51:00.621Z,8.50
2019-03-08T03:53:30.084Z,7.83
2019-03-08T03:55:59.529Z,8.23
2019-03-08T03:58:29.000Z,8.53
2019-03-08T04:00:58.464Z,8.43
2019-03-08T04:03:28.267Z,9.00
2019-03-08T04:05:57.708Z,9.53
2019-03-08T04:08:27.177Z,9.80
2019-03-08T04:10:56.829Z,8.63
2019-03-08T04:13:28.407Z,10.20
2019-03-08T04:15:57.869Z,9.13
2019-03-08T04:18:27.345Z,8.30
2019-03-08T04:20:56.886Z,9.20
2019-03-08T04:23:26.318Z,8.97
2019-03-08T04:25:55.847Z,9.90
2019-03-08T04:28:25.578Z,9.30
2019-03-08T04:30:55.052Z,9.20
2019-03-08T04:33:24.560Z,8.33
2019-03-08T04:35:54.030Z,9.23
2019-03-08T04:38:23.906Z,10.40
2019-03-08T04:40:53.717Z,10.70
2019-03-08T04:43:23.163Z,9.23
2019-03-08T04:45:53.102Z,10.03
2019-03-08T04:48:22.849Z,14.37
2019-03-08T04:50:53.526Z,9.83
2019-03-08T04:53:23.316Z,9.23
2019-03-08T04:55:52.793Z,9.53
2019-03-08T04:58:22.505Z,9.53
2019-03-08T05:00:51.996Z,9.80
2019-03-08T05:03:21.488Z,9.90
2019-03-08T05:05:51.453Z,9.80
2019-03-08T05:08:21.254Z,9.87
2019-03-08T05:10:52.537Z,8.57
2019-03-08T05:13:21.985Z,9.40
2019-03-08T05:15:51.809Z,9.17
2019-03-08T05:18:21.620Z,9.30
2019-03-08T05:20:51.172Z,10.33
2019-03-08T05:23:21.284Z,9.53
2019-03-08T05:25:50.865Z,9.43
2019-03-08T05:28:20.328Z,10.13
2019-03-08T05:30:50.144Z,9.10
2019-03-08T05:33:19.716Z,10.30
2019-03-08T05:35:49.177Z,9.73
2019-03-08T05:38:18.733Z,9.90
2019-03-08T05:40:48.917Z,9.87
2019-03-08T05:43:20.511Z,9.97
2019-03-08T05:45:50.660Z,10.20
2019-03-08T05:48:20.465Z,10.93
2019-03-08T05:50:50.622Z,10.57
2019-03-08T05:53:20.832Z,10.43
2019-03-08T05:55:50.965Z,11.30
2019-03-08T05:58:21.716Z,11.53
2019-03-08T06:00:51.532Z,11.93
2019-03-08T06:03:23.022Z,10.17
2019-03-08T06:05:52.854Z,10.77
2019-03-08T06:08:22.316Z,11.30
2019-03-08T06:10:52.172Z,11.87
2019-03-08T06:13:22.241Z,11.87
2019-03-08T06:15:52.049Z,11.97
2019-03-08T06:18:21.514Z,17.27
2019-03-08T06:20:50.968Z,11.20
2019-03-08T06:23:20.848Z,13.10
2019-03-08T06:25:50.306Z,10.93
2019-03-08T06:28:20.368Z,11.23
2019-03-08T06:30:50.325Z,12.63
2019-03-08T06:33:19.815Z,12.20
2019-03-08T06:35:49.813Z,11.80
2019-03-08T06:38:19.332Z,13.83
2019-03-08T06:40:49.172Z,14.20
2019-03-08T06:43:18.672Z,13.20
2019-03-08T06:45:50.308Z,13.83
2019-03-08T06:48:20.237Z,11.80
2019-03-08T06:50:50.467Z,15.73
2019-03-08T06:53:21.046Z,13.27
2019-03-08T06:55:50.803Z,14.00
2019-03-08T06:58:38.436Z,14.40
2019-03-08T07:01:13.398Z,13.03
2019-03-08T07:03:44.323Z,13.63
2019-03-08T07:06:13.764Z,12.07
2019-03-08T07:08:43.263Z,14.30
2019-03-08T07:11:18.813Z,14.23
2019-03-08T07:13:48.754Z,12.40
2019-03-08T07:16:19.069Z,13.97
2019-03-08T07:18:51.808Z,13.90
2019-03-08T07:21:29.197Z,13.43
2019-03-08T07:24:26.512Z,13.47
2019-03-08T07:27:13.922Z,14.23
2019-03-08T07:30:14.404Z,12.63
2019-03-08T07:32:51.539Z,13.10
2019-03-08T07:35:46.214Z,13.37
2019-03-08T07:38:40.571Z,14.53
2019-03-08T07:41:32.484Z,13.00
2019-03-08T07:44:21.409Z,15.07
2019-03-08T07:47:03.498Z,12.57
2019-03-08T07:49:55.244Z,15.37
2019-03-08T07:52:52.626Z,13.80
2019-03-08T07:55:47.196Z,12.73
2019-03-08T07:58:45.577Z,10.87
2019-03-08T08:01:37.107Z,17.90
2019-03-08T08:04:25.921Z,11.13
2019-03-08T08:07:02.565Z,12.30
2019-03-08T08:09:56.696Z,11.70
2019-03-08T08:12:44.337Z,14.60
2019-03-08T08:15:27.355Z,15.87
2019-03-08T08:18:11.913Z,11.50
2019-03-08T08:20:57.277Z,14.20
2019-03-08T08:23:49.540Z,12.47
2019-03-08T08:26:49.841Z,13.77
2019-03-08T08:29:38.241Z,10.23
2019-03-08T08:32:25.636Z,13.33
2019-03-08T08:35:12.989Z,11.83
2019-03-08T08:38:01.308Z,14.33
2019-03-08T08:40:52.853Z,16.23
2019-03-08T08:43:40.176Z,28.60
2019-03-08T08:46:28.771Z,12.70
2019-03-08T08:49:16.096Z,12.93
2019-03-08T08:52:03.662Z,10.77
2019-03-08T08:54:58.330Z,11.53
2019-03-08T08:57:37.589Z,10.80
2019-03-08T09:00:33.549Z,13.93
2019-03-08T09:03:26.550Z,10.17
2019-03-08T09:06:05.896Z,11.37
2019-03-08T09:08:47.688Z,11.23
2019-03-08T09:11:45.845Z,10.90
2019-03-08T09:14:30.739Z,10.53
2019-03-08T09:17:12.240Z,13.37
2019-03-08T09:19:47.949Z,13.03
2019-03-08T09:22:32.655Z,9.20
2019-03-08T09:25:21.710Z,10.20
2019-03-08T09:28:16.669Z,9.60
2019-03-08T09:31:17.221Z,15.90
2019-03-08T09:34:03.957Z,8.77
2019-03-08T09:36:53.914Z,9.47
2019-03-08T09:39:45.921Z,10.17
2019-03-08T09:42:37.175Z,9.43
2019-03-08T09:45:24.818Z,9.93
2019-03-08T09:48:04.769Z,6.70
2019-03-08T09:50:52.349Z,8.87
2019-03-08T09:53:42.883Z,8.33
2019-03-08T09:56:31.625Z,12.03
2019-03-08T09:59:18.989Z,8.87
2019-03-08T10:02:07.369Z,8.93
2019-03-08T10:04:49.649Z,8.07
2019-03-08T10:07:24.516Z,7.20
2019-03-08T10:10:28.094Z,9.77
2019-03-08T10:13:13.976Z,10.87
2019-03-08T10:15:53.666Z,8.80
2019-03-08T10:18:49.260Z,7.73
2019-03-08T10:21:32.704Z,8.43
2019-03-08T10:24:26.964Z,13.23
2019-03-08T10:27:15.310Z,11.07
2019-03-08T10:29:56.725Z,8.10
2019-03-08T10:32:50.297Z,8.00
2019-03-08T10:35:42.473Z,8.43
2019-03-08T10:38:27.084Z,12.00
2019-03-08T10:41:16.034Z,8.70
2019-03-08T10:44:11.111Z,10.97
2019-03-08T10:46:54.337Z,8.67
2019-03-08T10:49:54.736Z,8.83
2019-03-08T10:52:36.553Z,7.70
2019-03-08T10:55:37.909Z,9.50
2019-03-08T10:58:32.974Z,8.90
2019-03-08T11:01:11.669Z,11.30
2019-03-08T11:03:47.735Z,7.33
2019-03-08T11:06:26.941Z,12.20
2019-03-08T11:09:18.780Z,9.47
2019-03-08T11:12:05.356Z,6.83
2019-03-08T11:15:03.027Z,12.60
2019-03-08T11:17:50.964Z,7.43
2019-03-08T11:20:41.767Z,6.77
2019-03-08T11:23:29.189Z,7.73
2019-03-08T11:26:17.597Z,9.30
2019-03-08T11:29:12.177Z,7.40
2019-03-08T11:31:57.594Z,7.73
2019-03-08T11:34:37.213Z,8.97
2019-03-08T11:37:34.476Z,7.10
2019-03-08T11:40:10.337Z,6.83
2019-03-08T11:42:59.050Z,6.67
2019-03-08T11:45:50.444Z,11.00
2019-03-08T11:48:47.244Z,6.37
2019-03-08T11:51:38.653Z,6.40
2019-03-08T11:54:25.662Z,6.87
2019-03-08T11:57:12.905Z,7.97
2019-03-08T12:00:07.730Z,5.97
2019-03-08T12:02:49.273Z,6.53
2019-03-08T12:05:37.444Z,9.20
2019-03-08T12:08:31.965Z,6.90
2019-03-08T12:11:28.964Z,6.70
2019-03-08T12:14:23.620Z,7.40
2019-03-08T12:17:24.556Z,6.83
2019-03-08T12:20:09.521Z,6.23
2019-03-08T12:23:10.242Z,5.90
2019-03-08T12:26:07.665Z,5.90
2019-03-08T12:29:05.245Z,8.87
2019-03-08T12:32:00.453Z,6.53
2019-03-08T12:34:51.939Z,6.50
2019-03-08T12:37:40.330Z,6.23
2019-03-08T12:40:32.819Z,8.20
2019-03-08T12:43:21.084Z,6.53
2019-03-08T12:46:09.800Z,6.63
2019-03-08T12:48:47.877Z,7.00
2019-03-08T12:51:35.392Z,8.47
2019-03-08T12:54:30.193Z,7.70
2019-03-08T12:57:22.344Z,6.83
2019-03-08T13:00:19.957Z,5.60
2019-03-08T13:03:21.199Z,6.23
2019-03-08T13:06:05.449Z,8.03
2019-03-08T13:08:40.613Z,6.53
2019-03-08T13:11:10.094Z,6.50
2019-03-08T13:13:39.555Z,6.53
2019-03-08T13:16:09.238Z,7.73
2019-03-08T13:18:38.740Z,5.83
2019-03-08T13:21:08.616Z,6.47
2019-03-08T13:23:38.440Z,5.70
2019-03-08T13:26:07.969Z,6.93
2019-03-08T13:28:38.049Z,6.17
2019-03-08T13:31:08.273Z,6.73
2019-03-08T13:33:38.404Z,6.37
2019-03-08T13:36:08.320Z,6.60
2019-03-08T13:38:38.746Z,7.23
2019-03-08T13:41:08.855Z,7.30
2019-03-08T13:43:39.068Z,6.30
2019-03-08T13:46:08.620Z,6.60
2019-03-08T13:48:38.096Z,7.30
2019-03-08T13:51:08.651Z,6.93
2019-03-08T13:53:39.307Z,7.93
2019-03-08T13:56:08.781Z,8.33
2019-03-08T13:58:38.489Z,7.37
2019-03-08T14:01:08.303Z,7.63
2019-03-08T14:03:38.130Z,7.10
2019-03-08T14:06:08.077Z,8.83
2019-03-08T14:08:37.560Z,7.13
2019-03-08T14:11:08.132Z,6.67
2019-03-08T14:13:38.572Z,6.80
2019-03-08T14:16:08.539Z,7.00
2019-03-08T14:18:39.744Z,6.87
2019-03-08T14:21:09.600Z,6.77
2019-03-08T14:23:40.817Z,7.47
2019-03-08T14:26:10.337Z,7.60
2019-03-08T14:28:40.133Z,6.37
2019-03-08T14:31:39.010Z,6.67
2019-03-08T14:34:16.734Z,8.90
2019-03-08T14:36:44.632Z,9.07
2019-03-08T14:39:14.070Z,6.77
2019-03-08T14:41:53.315Z,9.50
2019-03-08T14:44:56.846Z,6.10
2019-03-08T14:47:33.399Z,9.57
2019-03-08T14:50:04.165Z,6.10
2019-03-08T14:52:33.934Z,5.60
2019-03-08T14:55:03.535Z,5.83
2019-03-08T14:57:34.508Z,5.90
2019-03-08T15:00:04.518Z,6.73
2019-03-08T15:02:34.112Z,6.30
2019-03-08T15:05:10.841Z,6.03
2019-03-08T15:07:37.266Z,5.83
2019-03-08T15:10:08.313Z,5.57
2019-03-08T15:12:48.449Z,6.50
2019-03-08T15:15:11.255Z,5.80
2019-03-08T15:17:41.005Z,6.10
2019-03-08T15:20:15.414Z,6.17
2019-03-08T15:22:45.862Z,6.23
2019-03-08T15:25:17.644Z,6.07
2019-03-08T15:27:48.436Z,6.40
2019-03-08T15:30:20.418Z,6.50
2019-03-08T15:32:50.205Z,5.67
2019-03-08T15:35:20.171Z,5.87
2019-03-08T15:37:51.168Z,6.10
2019-03-08T15:40:21.853Z,6.07
2019-03-08T15:42:51.440Z,5.83
2019-03-08T15:45:21.130Z,6.37
2019-03-08T15:47:50.693Z,6.40
2019-03-08T15:50:20.546Z,6.20
2019-03-08T15:52:51.485Z,6.37
2019-03-08T15:55:21.579Z,5.90
2019-03-08T15:57:51.150Z,5.80
2019-03-08T16:00:21.202Z,5.53
2019-03-08T16:02:51.385Z,5.80
2019-03-08T16:05:23.850Z,6.03
2019-03-08T16:07:52.120Z,6.30
2019-03-08T16:10:21.665Z,5.60
2019-03-08T16:12:51.062Z,5.23
2019-03-08T16:15:20.835Z,7.03
2019-03-08T16:17:50.873Z,5.63
2019-03-08T16:20:20.498Z,4.90
2019-03-08T16:22:49.986Z,5.43
2019-03-08T16:25:19.435Z,5.40
2019-03-08T16:27:48.965Z,5.13
2019-03-08T16:30:24.246Z,5.30
2019-03-08T16:33:13.332Z,7.80
2019-03-08T16:36:07.449Z,5.00
2019-03-08T16:39:02.112Z,5.70
2019-03-08T16:41:53.436Z,4.63
2019-03-08T16:44:29.970Z,5.87
2019-03-08T16:47:24.599Z,5.37
2019-03-08T16:50:11.609Z,5.30
2019-03-08T16:53:06.046Z,5.50
2019-03-08T16:56:10.733Z,5.13
2019-03-08T16:59:08.042Z,5.73
2019-03-08T17:01:56.133Z,5.90
2019-03-08T17:04:51.292Z,5.97
2019-03-08T17:07:36.625Z,5.90
2019-03-08T17:10:31.603Z,5.40
2019-03-08T17:13:19.523Z,5.90
2019-03-08T17:16:23.472Z,6.33
2019-03-08T17:19:11.672Z,6.53
2019-03-08T17:21:50.276Z,5.80
2019-03-08T17:24:37.678Z,5.70
2019-03-08T17:27:32.155Z,6.17
2019-03-08T17:30:17.261Z,6.83
2019-03-08T17:33:11.776Z,6.77
2019-03-08T17:36:04.185Z,5.83
2019-03-08T17:39:11.028Z,6.20
2019-03-08T17:42:11.349Z,6.17
2019-03-08T17:45:12.223Z,6.47
2019-03-08T17:48:02.353Z,5.63
2019-03-08T17:50:56.309Z,7.03
2019-03-08T17:53:47.877Z,5.87
2019-03-08T17:56:28.816Z,5.60
2019-03-08T17:59:23.772Z,5.53
2019-03-08T18:02:12.521Z,5.97
2019-03-08T18:05:01.177Z,5.97
2019-03-08T18:07:48.585Z,6.33
2019-03-08T18:10:35.974Z,5.20
2019-03-08T18:13:24.352Z,5.80
2019-03-08T18:16:11.029Z,5.47
2019-03-08T18:18:55.566Z,5.43
2019-03-08T18:21:43.421Z,5.63
2019-03-08T18:24:40.821Z,5.43
2019-03-08T18:27:36.150Z,5.60
2019-03-08T18:30:31.163Z,6.10
2019-03-08T18:33:19.296Z,6.97
2019-03-08T18:36:14.428Z,5.77
2019-03-08T18:38:54.006Z,5.77
2019-03-08T18:41:43.018Z,6.13
2019-03-08T18:44:28.844Z,5.93
2019-03-08T18:47:17.288Z,5.43
2019-03-08T18:50:09.171Z,5.67
2019-03-08T18:53:00.595Z,5.50
2019-03-08T18:56:07.781Z,5.80
2019-03-08T18:58:56.075Z,6.70
2019-03-08T19:01:33.454Z,6.93
2019-03-08T19:04:25.249Z,6.53
2019-03-08T19:07:16.704Z,5.80
2019-03-08T19:09:52.347Z,6.10
2019-03-08T19:12:39.681Z,6.90
2019-03-08T19:15:31.853Z,8.20
2019-03-08T19:18:20.609Z,7.10
2019-03-08T19:21:01.302Z,8.00
2019-03-08T19:23:38.105Z,6.60
2019-03-08T19:26:16.444Z,6.60
2019-03-08T19:28:52.100Z,6.90
2019-03-08T19:31:35.627Z,6.20
2019-03-08T19:34:15.598Z,5.40
2019-03-08T19:37:12.868Z,5.23
2019-03-08T19:40:10.526Z,6.23
2019-03-08T19:43:04.549Z,5.53
2019-03-08T19:45:44.329Z,4.77
2019-03-08T19:48:31.965Z,4.70
2019-03-08T19:51:29.744Z,4.47
2019-03-08T19:54:22.569Z,4.80
2019-03-08T19:57:18.241Z,4.53
2019-03-08T20:00:07.010Z,5.10
2019-03-08T20:02:43.725Z,5.43
2019-03-08T20:05:31.481Z,6.13
2019-03-08T20:08:18.880Z,6.23
2019-03-08T20:11:10.509Z,6.30
2019-03-08T20:13:58.355Z,6.33
2019-03-08T20:16:53.668Z,6.53
2019-03-08T20:19:51.835Z,6.00
2019-03-08T20:22:33.815Z,6.63
2019-03-08T20:25:14.460Z,6.10
2019-03-08T20:27:54.092Z,7.10
2019-03-08T20:30:41.441Z,7.83
2019-03-08T20:33:25.633Z,6.77
2019-03-08T20:36:13.522Z,6.60
2019-03-08T20:39:17.724Z,7.47
2019-03-08T20:41:55.473Z,7.70
2019-03-08T20:44:41.640Z,6.43
2019-03-08T20:47:18.340Z,10.90
2019-03-08T20:49:47.769Z,7.67
2019-03-08T20:52:17.531Z,7.30
2019-03-08T20:54:46.950Z,7.23
2019-03-08T20:57:16.402Z,7.60
2019-03-08T20:59:46.125Z,9.50
2019-03-08T21:02:15.601Z,10.10
2019-03-08T21:04:44.960Z,7.20
2019-03-08T21:07:15.086Z,8.10
2019-03-08T21:09:44.853Z,9.13
2019-03-08T21:12:14.586Z,7.93
2019-03-08T21:14:44.484Z,8.63
2019-03-08T21:17:14.997Z,7.93
2019-03-08T21:19:44.562Z,9.07
2019-03-08T21:22:14.009Z,10.53
2019-03-08T21:24:44.401Z,8.23
2019-03-08T21:27:15.016Z,8.20
2019-03-08T21:29:44.785Z,8.17
2019-03-08T21:32:14.534Z,8.43
2019-03-08T21:34:44.004Z,8.77
2019-03-08T21:37:14.088Z,7.17
2019-03-08T21:39:43.570Z,7.10
2019-03-08T21:42:12.996Z,7.17
2019-03-08T21:44:42.450Z,7.03
2019-03-08T21:47:12.542Z,8.87
2019-03-08T21:49:42.773Z,9.27
2019-03-08T21:52:15.224Z,7.27
2019-03-08T21:54:44.986Z,12.00
2019-03-08T21:57:14.427Z,8.83
2019-03-08T21:59:44.153Z,10.67
2019-03-08T22:02:13.724Z,8.53
2019-03-08T22:04:50.214Z,9.90
2019-03-08T22:07:19.653Z,7.60
2019-03-08T22:10:08.345Z,9.50
2019-03-08T22:12:37.789Z,8.03
2019-03-08T22:15:07.400Z,7.93
2019-03-08T22:17:37.521Z,9.27
2019-03-08T22:20:07.781Z,10.60
2019-03-08T22:22:37.195Z,8.43
2019-03-08T22:25:06.836Z,13.20
2019-03-08T22:27:36.344Z,7.30
2019-03-08T22:30:07.852Z,11.30
2019-03-08T22:32:37.275Z,7.27
2019-03-08T22:35:07.057Z,7.77
2019-03-08T22:37:36.690Z,9.07
2019-03-08T22:40:06.312Z,8.30
2019-03-08T22:42:36.170Z,8.10
2019-03-08T22:45:05.689Z,7.37
2019-03-08T22:47:35.093Z,8.77
2019-03-08T22:50:05.368Z,10.33
2019-03-08T22:52:35.486Z,11.70
2019-03-08T22:55:05.494Z,7.10
2019-03-08T22:57:35.041Z,7.53
2019-03-08T23:00:07.373Z,6.67
2019-03-08T23:02:37.140Z,8.57
2019-03-08T23:05:06.916Z,7.90
2019-03-08T23:07:36.381Z,7.93
2019-03-08T23:10:08.613Z,7.17
2019-03-08T23:12:58.881Z,8.43
2019-03-08T23:15:28.657Z,8.43
2019-03-08T23:17:58.450Z,6.57
2019-03-08T23:20:28.693Z,8.57
2019-03-08T23:22:58.169Z,6.37
2019-03-08T23:25:27.844Z,6.73
2019-03-08T23:28:17.006Z,6.43
2019-03-08T23:30:48.507Z,5.93
2019-03-08T23:33:17.965Z,5.90
2019-03-08T23:35:47.415Z,6.40
2019-03-08T23:38:17.307Z,6.53
2019-03-08T23:40:47.064Z,5.90
2019-03-08T23:43:16.745Z,7.27
2019-03-08T23:45:46.547Z,6.80
2019-03-08T23:48:16.694Z,8.77
2019-03-08T23:50:46.553Z,6.13
2019-03-08T23:53:16.409Z,8.53
2019-03-08T23:55:45.808Z,6.37
2019-03-08T23:58:15.286Z,6.80
